createdAt,value
2022-12-31T00:03:36.183Z,11.83
2022-12-31T00:08:38.310Z,15.07
2022-12-31T00:13:40.214Z,10.87
2022-12-31T00:18:46.039Z,14.83
2022-12-31T00:23:48.066Z,13.88
2022-12-31T00:28:49.872Z,14.53
2022-12-31T00:33:51.814Z,13.53
2022-12-31T00:38:54.556Z,13.50
2022-12-31T00:43:56.881Z,13.85
2022-12-31T00:48:58.764Z,13.48
2022-12-31T00:54:00.661Z,13.53
2022-12-31T00:59:02.403Z,13.33
2022-12-31T01:04:09.145Z,13.80
2022-12-31T01:09:11.846Z,13.48
2022-12-31T01:19:21.594Z,12.77
2022-12-31T01:24:23.604Z,13.23
2022-12-31T01:29:25.511Z,12.97
2022-12-31T01:34:27.432Z,9.60
2022-12-31T01:39:29.264Z,13.03
2022-12-31T01:44:31.035Z,13.90
2022-12-31T01:49:49.465Z,13.53
2022-12-31T01:54:54.482Z,13.05
2022-12-31T01:59:56.237Z,13.25
2022-12-31T02:04:58.392Z,13.70
2022-12-31T02:10:00.263Z,10.38
2022-12-31T02:15:02.128Z,12.67
2022-12-31T02:20:13.938Z,13.18
2022-12-31T02:25:23.321Z,13.60
2022-12-31T02:30:25.438Z,13.40
2022-12-31T02:35:34.796Z,9.63
2022-12-31T02:40:36.912Z,13.35
2022-12-31T02:45:43.459Z,10.25
2022-12-31T02:50:52.067Z,12.38
2022-12-31T02:55:59.082Z,13.95
2022-12-31T03:01:00.985Z,13.45
2022-12-31T03:06:03.571Z,14.90
2022-12-31T03:11:05.457Z,12.82
2022-12-31T03:16:07.437Z,13.77
2022-12-31T03:21:15.098Z,13.48
2022-12-31T03:26:16.942Z,14.48
2022-12-31T03:31:18.936Z,15.13
2022-12-31T03:36:20.913Z,13.90
2022-12-31T03:41:22.656Z,10.57
2022-12-31T03:46:24.502Z,13.93
2022-12-31T03:51:26.320Z,14.33
2022-12-31T03:56:28.297Z,10.10
2022-12-31T04:01:30.354Z,9.57
2022-12-31T04:06:32.219Z,13.03
2022-12-31T04:11:34.041Z,12.60
2022-12-31T04:16:35.914Z,11.83
2022-12-31T04:21:37.829Z,11.07
2022-12-31T04:26:39.687Z,11.23
2022-12-31T04:31:41.486Z,12.03
2022-12-31T04:36:43.325Z,12.60
2022-12-31T04:41:45.099Z,12.30
2022-12-31T04:46:46.970Z,12.17
2022-12-31T04:51:48.751Z,12.17
2022-12-31T04:56:50.627Z,12.07
2022-12-31T05:01:54.145Z,11.73
2022-12-31T05:06:56.228Z,12.38
2022-12-31T05:12:00.673Z,13.10
2022-12-31T05:17:02.582Z,9.75
2022-12-31T05:22:05.612Z,14.90
2022-12-31T05:27:07.419Z,13.07
2022-12-31T05:32:09.453Z,12.57
2022-12-31T05:37:11.321Z,12.10
2022-12-31T05:42:14.179Z,9.80
2022-12-31T05:47:16.335Z,9.57
2022-12-31T05:52:19.068Z,9.63
2022-12-31T05:57:21.318Z,9.90
2022-12-31T06:02:23.398Z,9.38
2022-12-31T06:07:25.247Z,9.17
2022-12-31T06:12:27.083Z,9.13
2022-12-31T06:17:28.879Z,8.60
2022-12-31T06:22:30.778Z,8.87
2022-12-31T06:27:32.725Z,9.17
2022-12-31T06:32:34.541Z,8.13
2022-12-31T06:37:36.420Z,8.57
2022-12-31T06:42:38.184Z,8.60
2022-12-31T06:47:40.043Z,8.67
2022-12-31T06:52:41.870Z,9.40
2022-12-31T06:57:43.981Z,8.57
2022-12-31T07:02:57.493Z,9.45
2022-12-31T07:08:26.049Z,8.70
2022-12-31T07:13:53.732Z,10.27
2022-12-31T07:18:58.373Z,10.32
2022-12-31T07:24:00.429Z,10.23
2022-12-31T07:29:05.030Z,11.60
2022-12-31T07:34:30.369Z,10.77
2022-12-31T07:39:42.251Z,11.50
2022-12-31T07:45:37.887Z,10.30
2022-12-31T07:50:39.940Z,9.40
2022-12-31T07:55:41.718Z,8.80
2022-12-31T08:00:43.613Z,7.07
2022-12-31T08:06:03.080Z,9.07
2022-12-31T08:11:29.326Z,8.45
2022-12-31T08:16:31.431Z,7.85
2022-12-31T08:21:39.617Z,9.63
2022-12-31T08:26:52.816Z,8.93
2022-12-31T08:32:17.310Z,8.88
2022-12-31T08:37:21.683Z,8.90
2022-12-31T08:42:44.214Z,8.68
2022-12-31T08:47:55.052Z,8.57
2022-12-31T08:53:00.281Z,6.75
2022-12-31T08:58:20.419Z,8.70
2022-12-31T09:03:27.695Z,6.65
2022-12-31T09:08:36.333Z,6.35
2022-12-31T09:13:46.381Z,5.43
2022-12-31T09:18:48.269Z,4.90
2022-12-31T09:23:50.268Z,4.53
2022-12-31T09:28:57.843Z,5.40
2022-12-31T09:34:08.530Z,5.40
2022-12-31T09:39:43.072Z,5.63
2022-12-31T09:45:22.083Z,4.90
2022-12-31T09:50:38.870Z,4.85
2022-12-31T09:55:48.304Z,4.97
2022-12-31T10:01:08.815Z,5.10
2022-12-31T10:06:31.962Z,5.18
2022-12-31T10:11:45.736Z,5.75
2022-12-31T10:16:50.226Z,5.63
2022-12-31T10:22:08.247Z,5.35
2022-12-31T10:27:28.663Z,5.35
2022-12-31T10:32:39.157Z,4.32
2022-12-31T10:38:02.820Z,4.00
2022-12-31T10:48:28.622Z,4.30
2022-12-31T10:53:48.801Z,4.30
2022-12-31T10:59:09.268Z,4.25
2022-12-31T11:04:20.212Z,4.43
2022-12-31T11:09:56.388Z,4.10
2022-12-31T11:15:20.674Z,4.20
2022-12-31T11:20:39.419Z,4.13
2022-12-31T11:26:14.497Z,4.40
2022-12-31T11:31:18.980Z,4.75
2022-12-31T11:36:24.481Z,5.00
2022-12-31T11:41:39.198Z,4.80
2022-12-31T11:47:10.585Z,5.40
2022-12-31T11:52:27.561Z,5.85
2022-12-31T11:57:36.990Z,6.47
2022-12-31T12:02:42.768Z,6.03
2022-12-31T12:07:44.773Z,6.50
2022-12-31T12:12:46.597Z,8.73
2022-12-31T12:17:53.734Z,6.67
2022-12-31T12:22:56.263Z,6.25
2022-12-31T12:27:58.093Z,5.68
2022-12-31T12:33:01.743Z,5.80
2022-12-31T12:38:08.357Z,5.13
2022-12-31T12:43:24.650Z,5.07
2022-12-31T12:48:37.676Z,4.32
2022-12-31T12:59:13.808Z,4.30
2022-12-31T13:04:36.866Z,4.88
2022-12-31T13:10:00.538Z,4.55
2022-12-31T13:15:16.003Z,4.20
2022-12-31T13:20:39.362Z,3.90
2022-12-31T13:25:55.337Z,3.95
2022-12-31T13:31:08.037Z,4.53
2022-12-31T13:36:13.770Z,4.40
2022-12-31T13:41:17.950Z,3.30
2022-12-31T13:46:31.367Z,2.92
2022-12-31T13:51:47.126Z,3.03
2022-12-31T13:56:49.022Z,3.15
2022-12-31T14:02:02.067Z,2.97
2022-12-31T14:07:12.519Z,3.50
2022-12-31T14:12:17.282Z,3.40
2022-12-31T14:17:32.780Z,3.53
2022-12-31T14:22:45.174Z,4.45
2022-12-31T14:27:47.864Z,3.50
2022-12-31T14:38:38.515Z,4.78
2022-12-31T14:43:54.100Z,6.88
2022-12-31T14:49:02.423Z,5.18
2022-12-31T14:54:05.021Z,5.15
2022-12-31T15:04:45.786Z,5.65
2022-12-31T15:10:05.967Z,6.38
2022-12-31T15:15:29.133Z,6.30
2022-12-31T15:21:00.929Z,7.57
2022-12-31T15:26:03.187Z,6.85
2022-12-31T15:31:05.055Z,6.75
2022-12-31T15:36:21.780Z,6.70
2022-12-31T15:41:36.779Z,7.20
2022-12-31T15:46:39.599Z,7.10
2022-12-31T15:51:56.353Z,7.47
2022-12-31T15:57:09.038Z,9.15
2022-12-31T16:07:42.052Z,10.77
2022-12-31T16:12:44.943Z,11.15
2022-12-31T16:17:46.913Z,11.27
2022-12-31T16:22:52.967Z,7.97
2022-12-31T16:27:54.848Z,11.20
2022-12-31T16:32:59.714Z,10.70
2022-12-31T16:38:13.120Z,9.65
2022-12-31T16:43:24.675Z,7.40
2022-12-31T16:48:26.503Z,8.40
2022-12-31T16:53:36.014Z,3.97
2022-12-31T16:58:40.512Z,4.43
2022-12-31T17:03:44.444Z,4.68
2022-12-31T17:08:46.136Z,4.95
2022-12-31T17:13:54.025Z,5.38
2022-12-31T17:18:55.863Z,4.82
2022-12-31T17:24:03.404Z,3.93
2022-12-31T17:29:05.234Z,4.20
2022-12-31T17:34:13.153Z,9.30
2022-12-31T17:39:19.194Z,6.20
2022-12-31T17:44:22.168Z,4.10
2022-12-31T17:49:51.584Z,3.70
2022-12-31T18:00:16.417Z,4.18
2022-12-31T18:05:19.958Z,4.45
2022-12-31T18:10:23.079Z,4.57
2022-12-31T18:15:25.073Z,4.63
2022-12-31T18:20:26.859Z,4.70
2022-12-31T18:25:28.690Z,5.33
2022-12-31T18:30:30.567Z,4.10
2022-12-31T18:36:06.985Z,4.60
2022-12-31T18:40:56.076Z,5.20
2022-12-31T18:45:58.145Z,5.45
2022-12-31T18:51:00.064Z,5.90
2022-12-31T18:56:02.789Z,6.00
2022-12-31T19:01:04.975Z,5.82
2022-12-31T19:06:07.137Z,6.00
2022-12-31T19:11:09.797Z,5.75
2022-12-31T19:21:17.839Z,6.47
2022-12-31T19:26:20.856Z,6.95
2022-12-31T19:31:22.846Z,7.13
2022-12-31T19:36:24.739Z,7.83
2022-12-31T19:41:26.710Z,7.90
2022-12-31T19:46:28.527Z,7.57
2022-12-31T19:51:30.400Z,5.80
2022-12-31T19:56:32.228Z,6.20
2022-12-31T20:01:34.254Z,8.20
2022-12-31T20:06:36.332Z,8.23
2022-12-31T20:11:38.203Z,8.90
2022-12-31T20:16:40.148Z,9.27
2022-12-31T20:21:42.107Z,9.30
2022-12-31T20:26:43.948Z,10.77
2022-12-31T20:31:46.357Z,9.83
2022-12-31T20:36:48.295Z,10.27
2022-12-31T20:41:50.212Z,7.67
2022-12-31T20:46:52.051Z,9.33
2022-12-31T20:51:54.157Z,9.87
2022-12-31T20:56:55.965Z,10.70
2022-12-31T21:02:21.090Z,9.90
2022-12-31T21:07:19.622Z,10.20
2022-12-31T21:12:21.703Z,10.83
2022-12-31T21:17:23.630Z,13.75
2022-12-31T21:22:25.417Z,9.20
2022-12-31T21:27:28.069Z,11.83
2022-12-31T21:37:58.178Z,20.48
2022-12-31T21:42:53.311Z,15.48
2022-12-31T21:47:58.351Z,21.33
2022-12-31T21:53:00.256Z,26.67
2022-12-31T22:03:23.930Z,28.65
2022-12-31T22:08:26.064Z,47.83
2022-12-31T22:13:27.957Z,53.50
2022-12-31T22:18:29.869Z,49.10
2022-12-31T22:23:32.015Z,21.50
2022-12-31T22:28:39.171Z,22.95
2022-12-31T22:33:42.230Z,20.77
2022-12-31T22:38:44.223Z,22.63
2022-12-31T22:43:50.554Z,28.60
2022-12-31T22:48:53.367Z,27.80
2022-12-31T22:53:55.251Z,21.75
2022-12-31T22:58:57.267Z,20.27
2022-12-31T23:03:59.226Z,25.98
2022-12-31T23:09:01.142Z,27.47
2022-12-31T23:14:03.125Z,87.87
2022-12-31T23:19:05.713Z,56.88
2022-12-31T23:29:20.091Z,20.38
2022-12-31T23:34:22.010Z,20.03
2022-12-31T23:39:23.845Z,18.77
2022-12-31T23:44:25.737Z,20.13
2022-12-31T23:49:27.650Z,19.37
2022-12-31T23:54:29.591Z,20.23
2022-12-31T23:59:31.574Z,18.60
